Time;durP1;ratioP1;P1;durP2;ratioP2;P2;SDS_P1;SDS_P2;PMS_P1;PMS_P2;Temp;Humidity;BMP_temperature;BMP_pressure;BME280_temperature;BME280_humidity;BME280_pressure;Samples;Min_cycle;Max_cycle;Signal;HPM_P1;HPM_P2
2022/12/18 00:00:58;;;;;;;;;;;-0.60;80.90;;;;;;5090705;28;19962;-36
2022/12/18 00:03:23;;;;;;;;;;;-0.70;80.80;;;;;;5092230;28;19912;-37
2022/12/18 00:05:49;;;;;;;;;;;-0.70;80.90;;;;;;5090691;28;19915;-35
2022/12/18 00:08:15;;;;;;;;;;;-0.70;80.90;;;;;;5091633;28;19973;-35
2022/12/18 00:10:41;;;;;;;;;;;-0.70;80.90;;;;;;5091880;28;19908;-34
2022/12/18 00:13:06;;;;;;;;;;;-0.70;80.90;;;;;;5091677;28;20271;-36
2022/12/18 00:15:35;;;;;;;;;;;-0.80;80.80;;;;;;5091593;28;20330;-35
2022/12/18 00:18:01;;;;;;;;;;;-0.80;80.80;;;;;;5091655;28;19908;-35
2022/12/18 00:20:26;;;;;;;;;;;-0.80;80.90;;;;;;5091507;28;19908;-36
2022/12/18 00:22:52;;;;;;;;;;;-0.80;80.80;;;;;;5091387;28;20229;-36
2022/12/18 00:25:17;;;;;;;;;;;-0.90;80.70;;;;;;5094815;28;19912;-37
2022/12/18 00:27:43;;;;;;;;;;;-0.90;80.70;;;;;;5095664;28;20045;-36
2022/12/18 00:30:09;;;;;;;;;;;-0.90;80.80;;;;;;5095272;28;19961;-36
2022/12/18 00:32:34;;;;;;;;;;;-0.90;80.80;;;;;;5095411;28;19912;-35
2022/12/18 00:35:00;;;;;;;;;;;-1.00;80.80;;;;;;5095535;28;19989;-36
2022/12/18 00:37:25;;;;;;;;;;;-1.00;80.70;;;;;;5095148;28;19912;-36
2022/12/18 00:39:51;;;;;;;;;;;-1.00;80.80;;;;;;5095145;28;20423;-35
2022/12/18 00:45:00;;;;;;;;;;;-1.10;80.80;;;;;;5094328;28;20003;-35
2022/12/18 00:47:26;;;;;;;;;;;-1.10;80.80;;;;;;5093905;28;19947;-36
2022/12/18 00:49:51;;;;;;;;;;;-1.10;80.80;;;;;;5095009;28;19961;-36
2022/12/18 00:52:17;;;;;;;;;;;-1.10;80.70;;;;;;5095182;28;19991;-36
2022/12/18 00:54:42;;;;;;;;;;;-1.20;80.70;;;;;;5094942;28;20359;-35
2022/12/18 00:57:08;;;;;;;;;;;-1.20;80.70;;;;;;5094757;28;19908;-36
2022/12/18 00:59:33;;;;;;;;;;;-1.20;80.70;;;;;;5094831;28;19915;-35
2022/12/18 01:01:58;;;;;;;;;;;-1.20;80.70;;;;;;5095200;28;19908;-37
2022/12/18 01:04:24;;;;;;;;;;;-1.20;80.70;;;;;;5094566;28;20355;-36
2022/12/18 01:06:49;;;;;;;;;;;-1.20;80.70;;;;;;5094471;28;20032;-36
2022/12/18 01:09:15;;;;;;;;;;;-1.20;80.70;;;;;;5094471;28;19920;-34
2022/12/18 01:11:40;;;;;;;;;;;-1.30;80.60;;;;;;5094477;28;19957;-35
2022/12/18 01:14:06;;;;;;;;;;;-1.30;80.60;;;;;;5094469;28;19935;-36
2022/12/18 01:16:31;;;;;;;;;;;-1.30;80.50;;;;;;5094633;28;20042;-35
2022/12/18 01:18:57;;;;;;;;;;;-1.30;80.50;;;;;;5094574;28;19970;-38
2022/12/18 01:21:23;;;;;;;;;;;-1.30;80.50;;;;;;5094314;28;20391;-34
2022/12/18 01:23:56;;;;;;;;;;;-1.30;80.40;;;;;;5094771;28;20287;-36
2022/12/18 01:26:22;;;;;;;;;;;-1.30;80.40;;;;;;5094314;28;20089;-36
2022/12/18 01:28:47;;;;;;;;;;;-1.30;80.40;;;;;;5094417;28;20286;-36
2022/12/18 01:31:19;;;;;;;;;;;-1.40;80.30;;;;;;5094295;28;19985;-36
2022/12/18 01:33:45;;;;;;;;;;;-1.40;80.30;;;;;;5094483;28;20366;-36
2022/12/18 01:36:21;;;;;;;;;;;-1.40;80.40;;;;;;5093766;28;19973;-35
2022/12/18 01:38:47;;;;;;;;;;;-1.50;80.40;;;;;;5094020;28;19912;-36
2022/12/18 01:41:13;;;;;;;;;;;-1.40;80.50;;;;;;5094037;28;20394;-36
2022/12/18 01:43:41;;;;;;;;;;;-1.50;80.40;;;;;;5093948;28;19935;-40
2022/12/18 01:46:06;;;;;;;;;;;-1.50;80.40;;;;;;5094132;28;20450;-36
2022/12/18 01:48:32;;;;;;;;;;;-1.50;80.40;;;;;;5093797;28;20010;-35
2022/12/18 01:51:00;;;;;;;;;;;-1.50;80.40;;;;;;5094208;28;19999;-36
2022/12/18 01:53:26;;;;;;;;;;;-1.50;80.40;;;;;;5093739;28;20299;-36
2022/12/18 01:55:53;;;;;;;;;;;-1.60;80.30;;;;;;5093617;28;19912;-36
2022/12/18 01:58:19;;;;;;;;;;;-1.50;80.40;;;;;;5093883;28;19919;-36
2022/12/18 02:00:45;;;;;;;;;;;-1.60;80.40;;;;;;5092148;28;19916;-35
2022/12/18 02:03:11;;;;;;;;;;;-1.50;80.40;;;;;;5093328;28;19919;-36
2022/12/18 02:05:42;;;;;;;;;;;-1.60;80.20;;;;;;5093361;28;20291;-36
2022/12/18 02:08:16;;;;;;;;;;;-1.60;80.20;;;;;;5093253;28;19959;-38
2022/12/18 02:10:53;;;;;;;;;;;-1.60;80.20;;;;;;5093599;28;19916;-46
2022/12/18 02:13:37;;;;;;;;;;;-1.60;80.20;;;;;;5093243;28;19912;-36
2022/12/18 02:16:05;;;;;;;;;;;-1.60;80.10;;;;;;5093134;28;20401;-36
2022/12/18 02:18:33;;;;;;;;;;;-1.60;80.10;;;;;;5093041;28;20333;-36
2022/12/18 02:20:58;;;;;;;;;;;-1.60;80.20;;;;;;5092981;28;19938;-36
2022/12/18 02:23:35;;;;;;;;;;;-1.60;80.20;;;;;;5093103;28;20024;-34
2022/12/18 02:26:21;;;;;;;;;;;-1.70;80.10;;;;;;5092962;28;19912;-36
2022/12/18 02:29:03;;;;;;;;;;;-1.70;80.10;;;;;;5092401;28;19916;-36
2022/12/18 02:31:31;;;;;;;;;;;-1.70;80.10;;;;;;5093013;28;19912;-36
2022/12/18 02:33:59;;;;;;;;;;;-1.70;80.10;;;;;;5092997;28;20444;-36
2022/12/18 02:36:27;;;;;;;;;;;-1.70;80.70;;;;;;5092786;28;19923;-36
2022/12/18 02:38:53;;;;;;;;;;;-1.70;80.10;;;;;;5093031;28;19993;-35
2022/12/18 02:41:19;;;;;;;;;;;-1.70;80.10;;;;;;5092989;28;19916;-36
2022/12/18 02:43:48;;;;;;;;;;;-1.80;80.10;;;;;;5092785;28;19923;-35
2022/12/18 02:46:34;;;;;;;;;;;-1.80;80.10;;;;;;5092687;28;19916;-35
2022/12/18 02:49:11;;;;;;;;;;;-1.80;80.10;;;;;;5092734;28;19916;-36
2022/12/18 02:51:50;;;;;;;;;;;-1.80;80.10;;;;;;5092694;28;19916;-36
2022/12/18 02:54:44;;;;;;;;;;;-1.80;80.10;;;;;;5092598;28;19938;-35
2022/12/18 02:57:23;;;;;;;;;;;-1.80;80.10;;;;;;5083184;28;19919;-36
2022/12/18 03:00:01;;;;;;;;;;;-1.90;80.00;;;;;;5092469;28;19919;-36
2022/12/18 03:02:31;;;;;;;;;;;-1.90;80.00;;;;;;5092413;28;19919;-36
2022/12/18 03:04:57;;;;;;;;;;;-1.80;80.00;;;;;;5092425;28;19919;-36
2022/12/18 03:07:26;;;;;;;;;;;-1.90;79.90;;;;;;5092095;28;19920;-36
2022/12/18 03:09:52;;;;;;;;;;;-1.90;79.90;;;;;;5092546;28;20077;-36
2022/12/18 03:12:24;;;;;;;;;;;-1.80;79.90;;;;;;5092296;28;20325;-36
2022/12/18 03:15:10;;;;;;;;;;;-1.80;79.90;;;;;;5092518;28;20276;-36
2022/12/18 03:17:36;;;;;;;;;;;-1.90;79.80;;;;;;5091800;28;20295;-35
2022/12/18 03:20:05;;;;;;;;;;;-1.90;79.80;;;;;;5090902;28;19912;-34
2022/12/18 03:22:32;;;;;;;;;;;-1.90;79.80;;;;;;5092205;28;19985;-38
2022/12/18 03:24:58;;;;;;;;;;;-1.90;79.80;;;;;;5091998;28;19987;-36
2022/12/18 03:27:24;;;;;;;;;;;-1.90;79.80;;;;;;5091919;28;19912;-34
2022/12/18 03:29:56;;;;;;;;;;;-1.90;79.80;;;;;;5092000;28;19916;-37
2022/12/18 03:32:27;;;;;;;;;;;-1.90;79.70;;;;;;5092107;28;19912;-35
2022/12/18 03:34:53;;;;;;;;;;;-2.00;79.70;;;;;;5091940;28;19919;-35
2022/12/18 03:37:19;;;;;;;;;;;-2.00;79.70;;;;;;5092017;28;20378;-34
2022/12/18 03:39:44;;;;;;;;;;;-2.00;79.70;;;;;;5092143;28;19916;-34
2022/12/18 03:42:20;;;;;;;;;;;-2.00;79.70;;;;;;5090544;28;19919;-35
2022/12/18 03:45:02;;;;;;;;;;;-2.00;79.70;;;;;;5092073;28;19919;-35
2022/12/18 03:47:30;;;;;;;;;;;-2.00;79.60;;;;;;5091798;28;19912;-35
2022/12/18 03:50:04;;;;;;;;;;;-2.00;79.50;;;;;;5091738;28;20272;-35
2022/12/18 03:52:33;;;;;;;;;;;-2.00;79.60;;;;;;5091745;28;19994;-36
2022/12/18 03:54:59;;;;;;;;;;;-2.00;79.50;;;;;;5091742;28;20398;-35
2022/12/18 03:57:28;;;;;;;;;;;-2.00;79.50;;;;;;5091833;28;19973;-35
2022/12/18 03:59:59;;;;;;;;;;;-2.00;79.50;;;;;;5094782;28;19913;-35
2022/12/18 04:02:25;;;;;;;;;;;-2.10;79.40;;;;;;5095825;28;20429;-34
2022/12/18 04:04:55;;;;;;;;;;;-2.10;79.40;;;;;;5095697;28;19912;-35
2022/12/18 04:07:21;;;;;;;;;;;-2.10;79.50;;;;;;5095619;28;20260;-35
2022/12/18 04:09:48;;;;;;;;;;;-2.10;79.50;;;;;;5095779;28;19916;-34
2022/12/18 04:12:13;;;;;;;;;;;-2.10;79.50;;;;;;5095661;28;19919;-34
2022/12/18 04:14:39;;;;;;;;;;;-2.10;79.40;;;;;;5095603;28;20070;-35
2022/12/18 04:17:04;;;;;;;;;;;-2.10;79.40;;;;;;5095675;28;19916;-35
2022/12/18 04:19:30;;;;;;;;;;;-2.10;79.40;;;;;;5095667;28;19916;-35
2022/12/18 04:21:55;;;;;;;;;;;-2.10;79.40;;;;;;5095483;28;19959;-34
2022/12/18 04:24:21;;;;;;;;;;;-2.00;79.40;;;;;;5095436;28;20031;-34
2022/12/18 04:26:46;;;;;;;;;;;-2.10;79.40;;;;;;5095288;28;19912;-34
2022/12/18 04:29:12;;;;;;;;;;;-2.10;79.40;;;;;;5095395;28;20331;-36
2022/12/18 04:31:37;;;;;;;;;;;-2.10;79.40;;;;;;5095356;28;19965;-34
2022/12/18 04:34:03;;;;;;;;;;;-2.20;79.30;;;;;;5095229;28;19912;-34
2022/12/18 04:36:28;;;;;;;;;;;-2.20;79.40;;;;;;5095178;28;19912;-35
2022/12/18 04:38:54;;;;;;;;;;;-2.20;79.40;;;;;;5095214;28;20295;-34
2022/12/18 04:41:19;;;;;;;;;;;-2.10;79.40;;;;;;5093849;28;19999;-35
2022/12/18 04:43:45;;;;;;;;;;;-2.10;79.40;;;;;;5095091;28;19924;-34
2022/12/18 04:46:10;;;;;;;;;;;-2.10;79.40;;;;;;5095109;28;19919;-35
2022/12/18 04:48:36;;;;;;;;;;;-2.10;79.40;;;;;;5094825;28;19970;-34
2022/12/18 04:51:02;;;;;;;;;;;-2.10;79.40;;;;;;5094993;28;19912;-33
2022/12/18 04:53:27;;;;;;;;;;;-2.10;79.40;;;;;;5093652;28;19919;-34
2022/12/18 04:56:03;;;;;;;;;;;-2.20;79.90;;;;;;5095023;28;19916;-35
2022/12/18 04:58:29;;;;;;;;;;;-2.20;79.30;;;;;;5093498;28;20121;-35
2022/12/18 05:00:54;;;;;;;;;;;-2.20;79.30;;;;;;5095013;28;19982;-34
2022/12/18 05:03:20;;;;;;;;;;;-2.20;79.30;;;;;;5094980;28;20284;-35
2022/12/18 05:05:48;;;;;;;;;;;-2.20;79.30;;;;;;5093382;28;19913;-35
2022/12/18 05:08:14;;;;;;;;;;;-2.20;79.30;;;;;;5094449;28;19971;-32
2022/12/18 05:10:39;;;;;;;;;;;-2.20;79.30;;;;;;5093402;28;19912;-35
2022/12/18 05:13:05;;;;;;;;;;;-2.20;79.30;;;;;;5094621;28;19916;-34
2022/12/18 05:15:31;;;;;;;;;;;-2.20;79.30;;;;;;5094580;28;19912;-37
2022/12/18 05:17:57;;;;;;;;;;;-2.20;79.30;;;;;;5094694;28;20389;-45
2022/12/18 05:20:23;;;;;;;;;;;-2.20;79.30;;;;;;5094357;28;19912;-33
2022/12/18 05:22:49;;;;;;;;;;;-2.20;79.30;;;;;;5094696;28;20030;-35
2022/12/18 05:25:15;;;;;;;;;;;-2.20;79.20;;;;;;5094365;28;20653;-35
2022/12/18 05:27:41;;;;;;;;;;;-2.20;79.10;;;;;;5094151;28;19934;-35
2022/12/18 05:30:07;;;;;;;;;;;-2.20;79.10;;;;;;5092895;28;19935;-33
2022/12/18 05:32:32;;;;;;;;;;;-2.20;79.10;;;;;;5094416;28;19916;-35
2022/12/18 05:34:58;;;;;;;;;;;-2.20;79.10;;;;;;5094016;28;19984;-36
2022/12/18 05:37:23;;;;;;;;;;;-2.20;79.10;;;;;;5094078;28;19912;-35
2022/12/18 05:39:48;;;;;;;;;;;-2.20;79.00;;;;;;5094077;28;20291;-35
2022/12/18 05:42:14;;;;;;;;;;;-2.30;79.00;;;;;;5093959;28;20619;-36
2022/12/18 05:44:40;;;;;;;;;;;-2.30;79.00;;;;;;5093976;28;19957;-35
2022/12/18 05:47:06;;;;;;;;;;;-2.30;79.00;;;;;;5093732;28;19955;-34
2022/12/18 05:49:31;;;;;;;;;;;-2.30;79.10;;;;;;5093735;28;19916;-36
2022/12/18 05:51:57;;;;;;;;;;;-2.20;79.20;;;;;;5093801;28;19916;-35
2022/12/18 05:54:22;;;;;;;;;;;-2.30;79.10;;;;;;5093817;28;20271;-36
2022/12/18 05:56:47;;;;;;;;;;;-2.20;79.10;;;;;;5093576;28;19915;-34
2022/12/18 05:59:13;;;;;;;;;;;-2.30;79.10;;;;;;5093555;28;19912;-34
2022/12/18 06:01:38;;;;;;;;;;;-2.20;79.10;;;;;;5093572;28;19919;-35
2022/12/18 06:04:04;;;;;;;;;;;-2.30;79.10;;;;;;5093400;28;19912;-35
2022/12/18 06:06:29;;;;;;;;;;;-2.30;79.10;;;;;;5093295;28;19951;-35
2022/12/18 06:08:56;;;;;;;;;;;-2.30;79.10;;;;;;5093010;28;19927;-35
2022/12/18 06:11:23;;;;;;;;;;;-2.30;79.10;;;;;;5091659;28;19919;-37
2022/12/18 06:13:52;;;;;;;;;;;-2.20;79.20;;;;;;5093732;28;19920;-34
2022/12/18 06:16:17;;;;;;;;;;;-2.30;79.10;;;;;;5093435;28;19954;-40
2022/12/18 06:18:43;;;;;;;;;;;-2.30;79.10;;;;;;5093391;28;19916;-35
2022/12/18 06:21:08;;;;;;;;;;;-2.30;79.10;;;;;;5093094;28;19912;-35
2022/12/18 06:23:34;;;;;;;;;;;-2.20;79.20;;;;;;5093202;28;19989;-34
2022/12/18 06:26:03;;;;;;;;;;;-2.30;79.20;;;;;;5093139;28;20026;-35
2022/12/18 06:28:29;;;;;;;;;;;-2.30;79.10;;;;;;5093034;28;20002;-35
2022/12/18 06:30:54;;;;;;;;;;;-2.20;79.20;;;;;;5093276;28;20009;-35
2022/12/18 06:33:19;;;;;;;;;;;-2.30;79.10;;;;;;5093038;28;19934;-35
2022/12/18 06:35:45;;;;;;;;;;;-2.30;79.10;;;;;;5093196;28;19916;-35
2022/12/18 06:38:11;;;;;;;;;;;-2.30;79.10;;;;;;5093107;28;20363;-35
2022/12/18 06:40:37;;;;;;;;;;;-2.30;79.10;;;;;;5093386;28;20002;-35
2022/12/18 06:43:02;;;;;;;;;;;-2.30;79.10;;;;;;5092932;28;20011;-35
2022/12/18 06:45:28;;;;;;;;;;;-2.30;79.10;;;;;;5092961;28;19954;-34
2022/12/18 06:47:53;;;;;;;;;;;-2.30;79.10;;;;;;5092836;28;19969;-36
2022/12/18 06:50:19;;;;;;;;;;;-2.30;79.20;;;;;;5092780;28;19916;-34
2022/12/18 06:52:44;;;;;;;;;;;-2.30;79.10;;;;;;5092726;28;20364;-34
2022/12/18 06:55:10;;;;;;;;;;;-2.30;79.10;;;;;;5092651;28;19916;-35
2022/12/18 06:57:36;;;;;;;;;;;-2.30;79.10;;;;;;5092606;28;20383;-35
2022/12/18 07:00:03;;;;;;;;;;;-2.30;79.10;;;;;;5092530;28;19919;-35
2022/12/18 07:02:29;;;;;;;;;;;-2.30;79.10;;;;;;5092318;28;19987;-35
2022/12/18 07:04:54;;;;;;;;;;;-2.30;79.00;;;;;;5092411;28;20020;-34
2022/12/18 07:07:19;;;;;;;;;;;-2.30;79.00;;;;;;5092292;28;20486;-35
2022/12/18 07:09:45;;;;;;;;;;;-2.30;79.00;;;;;;5092773;28;19997;-33
2022/12/18 07:12:10;;;;;;;;;;;-2.20;79.10;;;;;;5092536;28;20002;-35
2022/12/18 07:14:36;;;;;;;;;;;-2.20;79.10;;;;;;5092410;28;20260;-35
2022/12/18 07:17:01;;;;;;;;;;;-2.20;79.00;;;;;;5092387;28;19912;-35
2022/12/18 07:19:27;;;;;;;;;;;-2.20;79.10;;;;;;5092446;28;20364;-35
2022/12/18 07:21:52;;;;;;;;;;;-2.20;79.00;;;;;;5092447;28;19912;-35
2022/12/18 07:24:18;;;;;;;;;;;-2.10;79.60;;;;;;5092315;28;19912;-35
2022/12/18 07:26:45;;;;;;;;;;;-2.10;79.00;;;;;;5092270;28;20011;-33
2022/12/18 07:29:11;;;;;;;;;;;-2.10;79.00;;;;;;5092031;28;19923;-35
2022/12/18 07:31:36;;;;;;;;;;;-2.10;78.90;;;;;;5092208;28;19912;-35
2022/12/18 07:34:02;;;;;;;;;;;-2.10;78.90;;;;;;5091598;28;20407;-34
2022/12/18 07:36:27;;;;;;;;;;;-2.00;78.90;;;;;;5092221;28;19919;-34
2022/12/18 07:38:53;;;;;;;;;;;-2.00;78.90;;;;;;5092156;28;20508;-35
2022/12/18 07:41:18;;;;;;;;;;;-2.00;78.80;;;;;;5091963;28;19999;-34
2022/12/18 07:43:44;;;;;;;;;;;-2.00;78.80;;;;;;5092059;28;19913;-35
2022/12/18 07:46:09;;;;;;;;;;;-2.00;78.80;;;;;;5092407;28;19912;-35
2022/12/18 07:48:35;;;;;;;;;;;-2.00;78.80;;;;;;5091952;28;20211;-35
2022/12/18 07:51:05;;;;;;;;;;;-2.00;78.80;;;;;;5091987;28;19920;-35
2022/12/18 07:53:31;;;;;;;;;;;-2.00;78.80;;;;;;5090711;28;20022;-34
2022/12/18 07:55:58;;;;;;;;;;;-1.90;78.80;;;;;;5092048;28;19955;-34
2022/12/18 07:58:23;;;;;;;;;;;-1.90;78.80;;;;;;5092094;28;20356;-35
2022/12/18 08:00:49;;;;;;;;;;;-1.90;78.80;;;;;;5090547;28;19919;-33
2022/12/18 08:03:15;;;;;;;;;;;-1.90;78.70;;;;;;5091811;28;19923;-38
2022/12/18 08:05:40;;;;;;;;;;;-1.80;78.70;;;;;;5091774;28;19916;-36
2022/12/18 08:08:06;;;;;;;;;;;-1.80;78.60;;;;;;5091599;28;19973;-34
2022/12/18 08:10:31;;;;;;;;;;;-1.80;78.60;;;;;;5091914;28;20046;-34
2022/12/18 08:12:56;;;;;;;;;;;-1.80;78.60;;;;;;5091728;28;20385;-36
2022/12/18 08:15:23;;;;;;;;;;;-1.70;78.60;;;;;;5091840;28;20003;-38
2022/12/18 08:17:48;;;;;;;;;;;-1.70;78.50;;;;;;5091770;28;20354;-33
2022/12/18 08:20:14;;;;;;;;;;;-1.70;78.50;;;;;;5091817;28;19913;-34
2022/12/18 08:22:41;;;;;;;;;;;-1.60;78.40;;;;;;5091592;28;19919;-38
2022/12/18 08:25:07;;;;;;;;;;;-1.60;78.40;;;;;;5091593;28;19919;-37
2022/12/18 08:27:32;;;;;;;;;;;-1.50;78.40;;;;;;5091739;28;20375;-34
2022/12/18 08:29:58;;;;;;;;;;;-1.50;78.40;;;;;;5091464;28;20375;-34
2022/12/18 08:32:24;;;;;;;;;;;-1.40;78.30;;;;;;5090339;28;19912;-36
2022/12/18 08:34:49;;;;;;;;;;;-1.40;78.20;;;;;;5091759;28;19918;-34
2022/12/18 08:37:15;;;;;;;;;;;-1.40;78.10;;;;;;5091656;28;19938;-35
2022/12/18 08:39:40;;;;;;;;;;;-1.30;78.10;;;;;;5091764;28;19916;-36
2022/12/18 08:44:50;;;;;;;;;;;-1.30;78.00;;;;;;5092597;28;19938;-36
2022/12/18 08:47:15;;;;;;;;;;;-1.30;78.00;;;;;;5095202;28;19912;-34
2022/12/18 08:49:41;;;;;;;;;;;-1.30;78.00;;;;;;5095181;28;20276;-36
2022/12/18 08:52:06;;;;;;;;;;;-1.30;78.00;;;;;;5095114;28;19912;-35
2022/12/18 08:54:32;;;;;;;;;;;-1.20;78.00;;;;;;5094941;28;19965;-36
2022/12/18 08:56:57;;;;;;;;;;;-1.20;78.00;;;;;;5095417;28;20146;-36
2022/12/18 08:59:23;;;;;;;;;;;-1.20;78.00;;;;;;5095319;28;19957;-37
2022/12/18 09:01:48;;;;;;;;;;;-1.20;78.00;;;;;;5095227;28;20363;-35
2022/12/18 09:04:14;;;;;;;;;;;-1.20;78.00;;;;;;5095112;28;20117;-36
2022/12/18 09:06:40;;;;;;;;;;;-1.10;78.10;;;;;;5094966;28;19912;-33
2022/12/18 09:09:05;;;;;;;;;;;-1.10;78.10;;;;;;5094711;28;19923;-37
2022/12/18 09:11:32;;;;;;;;;;;-1.10;78.00;;;;;;5094768;28;19919;-37
2022/12/18 09:13:58;;;;;;;;;;;-1.00;78.00;;;;;;5094599;28;20072;-36
2022/12/18 09:16:25;;;;;;;;;;;-1.00;77.90;;;;;;5093352;28;20026;-37
2022/12/18 09:18:50;;;;;;;;;;;-0.90;77.80;;;;;;5093095;28;20014;-35
2022/12/18 09:21:17;;;;;;;;;;;-0.90;77.70;;;;;;5094373;28;19912;-35
2022/12/18 09:23:43;;;;;;;;;;;-0.90;77.60;;;;;;5094253;28;20340;-35
2022/12/18 09:26:09;;;;;;;;;;;-0.80;77.60;;;;;;5094216;28;19912;-35
2022/12/18 09:28:34;;;;;;;;;;;-0.70;77.60;;;;;;5094240;28;20283;-35
2022/12/18 09:31:03;;;;;;;;;;;-0.60;77.60;;;;;;5094241;28;20279;-33
2022/12/18 09:33:28;;;;;;;;;;;-0.60;77.60;;;;;;5094161;28;19912;-35
2022/12/18 09:35:54;;;;;;;;;;;-0.50;77.50;;;;;;5094360;28;19938;-36
2022/12/18 09:38:19;;;;;;;;;;;-0.50;77.40;;;;;;5093981;28;20348;-34
2022/12/18 09:40:49;;;;;;;;;;;-0.40;77.40;;;;;;5094235;28;19970;-35
2022/12/18 09:43:17;;;;;;;;;;;-0.30;77.40;;;;;;5094326;28;19923;-35
2022/12/18 09:45:49;;;;;;;;;;;-0.30;77.30;;;;;;5094204;28;19935;-35
2022/12/18 09:48:18;;;;;;;;;;;-0.30;77.20;;;;;;5094278;28;20472;-35
2022/12/18 09:50:44;;;;;;;;;;;-0.20;77.20;;;;;;5092762;28;19935;-36
2022/12/18 09:53:15;;;;;;;;;;;-0.10;77.20;;;;;;5093847;28;20402;-33
2022/12/18 09:55:41;;;;;;;;;;;-0.10;77.10;;;;;;5093905;28;20253;-35
2022/12/18 09:58:16;;;;;;;;;;;0.00;77.10;;;;;;5093324;28;19912;-45
2022/12/18 10:00:41;;;;;;;;;;;0.00;77.10;;;;;;5093602;28;20268;-36
2022/12/18 10:03:11;;;;;;;;;;;0.10;77.10;;;;;;5093634;28;19923;-33
2022/12/18 10:05:56;;;;;;;;;;;0.10;77.60;;;;;;5093609;28;19978;-35
2022/12/18 10:08:37;;;;;;;;;;;0.10;77.00;;;;;;5092093;28;19949;-39
2022/12/18 10:11:28;;;;;;;;;;;0.10;77.00;;;;;;5093956;28;19950;-41
2022/12/18 10:14:00;;;;;;;;;;;0.20;76.90;;;;;;5076921;28;21356;-36
2022/12/18 10:16:33;;;;;;;;;;;0.20;76.90;;;;;;5093570;28;19916;-35
2022/12/18 10:19:11;;;;;;;;;;;0.30;76.90;;;;;;5093275;28;19919;-38
2022/12/18 10:21:36;;;;;;;;;;;0.30;76.80;;;;;;5093187;28;19962;-34
2022/12/18 10:24:22;;;;;;;;;;;0.30;76.70;;;;;;5093089;28;19912;-39
2022/12/18 10:26:47;;;;;;;;;;;0.40;76.70;;;;;;5092910;28;20383;-36
2022/12/18 10:29:14;;;;;;;;;;;0.40;76.70;;;;;;5093250;28;19920;-37
2022/12/18 10:31:39;;;;;;;;;;;0.50;76.80;;;;;;5093120;28;19909;-34
2022/12/18 10:34:14;;;;;;;;;;;0.50;76.70;;;;;;5091822;28;20012;-37
2022/12/18 10:36:40;;;;;;;;;;;0.60;76.60;;;;;;5093114;28;19919;-36
2022/12/18 10:39:16;;;;;;;;;;;0.60;76.60;;;;;;5093114;28;19908;-44
2022/12/18 10:41:41;;;;;;;;;;;0.70;76.40;;;;;;5093284;28;19908;-37
2022/12/18 10:44:11;;;;;;;;;;;0.70;76.90;;;;;;5092724;28;19908;-34
2022/12/18 10:46:37;;;;;;;;;;;0.80;76.40;;;;;;5093040;28;19924;-34
2022/12/18 10:49:02;;;;;;;;;;;0.80;76.20;;;;;;5092781;28;19912;-35
2022/12/18 10:51:30;;;;;;;;;;;0.80;76.20;;;;;;5092696;28;20424;-34
2022/12/18 10:54:06;;;;;;;;;;;0.80;76.10;;;;;;5092936;28;19912;-33
2022/12/18 10:56:33;;;;;;;;;;;0.90;76.20;;;;;;5092713;28;19908;-35
2022/12/18 10:58:59;;;;;;;;;;;0.80;76.10;;;;;;5093010;28;19915;-34
2022/12/18 11:01:24;;;;;;;;;;;0.90;76.10;;;;;;5092828;28;19912;-35
2022/12/18 11:03:50;;;;;;;;;;;1.00;76.00;;;;;;5092640;28;19943;-34
2022/12/18 11:06:17;;;;;;;;;;;1.00;76.00;;;;;;5092459;28;20022;-37
2022/12/18 11:08:43;;;;;;;;;;;1.00;76.00;;;;;;5091399;28;19985;-35
2022/12/18 11:11:22;;;;;;;;;;;1.10;76.00;;;;;;5092371;28;19919;-35
2022/12/18 11:13:51;;;;;;;;;;;1.10;75.80;;;;;;5092409;28;19934;-35
2022/12/18 11:16:18;;;;;;;;;;;1.10;75.90;;;;;;5092592;28;19918;-35
2022/12/18 11:18:44;;;;;;;;;;;1.20;75.70;;;;;;5092481;28;20022;-35
2022/12/18 11:21:10;;;;;;;;;;;1.20;75.60;;;;;;5090851;28;19999;-35
2022/12/18 11:23:37;;;;;;;;;;;1.20;76.20;;;;;;5092301;28;19912;-34
2022/12/18 11:26:04;;;;;;;;;;;1.20;76.50;;;;;;5092270;28;20019;-35
2022/12/18 11:28:56;;;;;;;;;;;1.30;76.40;;;;;;5091841;28;19959;-35
2022/12/18 11:31:23;;;;;;;;;;;1.30;76.30;;;;;;5075784;28;19912;-36
2022/12/18 11:33:52;;;;;;;;;;;1.30;76.20;;;;;;5092411;28;20307;-35
2022/12/18 11:36:18;;;;;;;;;;;1.40;76.00;;;;;;5092050;28;19913;-41
2022/12/18 11:38:45;;;;;;;;;;;1.40;75.90;;;;;;5092018;28;19912;-35
2022/12/18 11:41:10;;;;;;;;;;;1.50;75.90;;;;;;5091881;28;19912;-34
2022/12/18 11:43:43;;;;;;;;;;;1.50;75.70;;;;;;5090621;28;19935;-36
2022/12/18 11:46:14;;;;;;;;;;;1.50;75.60;;;;;;5091926;28;20356;-34
2022/12/18 11:48:49;;;;;;;;;;;1.60;75.70;;;;;;5091846;28;19961;-35
2022/12/18 11:51:20;;;;;;;;;;;1.60;75.50;;;;;;5090504;28;20497;-37
2022/12/18 11:53:46;;;;;;;;;;;1.60;75.30;;;;;;5092077;28;19912;-35
2022/12/18 11:56:25;;;;;;;;;;;1.70;75.30;;;;;;5091976;28;20034;-33
2022/12/18 11:59:14;;;;;;;;;;;1.70;75.60;;;;;;5092181;28;19940;-35
2022/12/18 12:01:50;;;;;;;;;;;1.70;75.50;;;;;;5071944;28;20002;-36
2022/12/18 12:04:29;;;;;;;;;;;1.70;75.40;;;;;;5092196;28;19981;-35
2022/12/18 12:07:11;;;;;;;;;;;1.70;75.30;;;;;;5091959;28;19912;-36
2022/12/18 12:09:48;;;;;;;;;;;1.80;75.10;;;;;;5091455;28;20355;-35
2022/12/18 12:12:17;;;;;;;;;;;1.80;76.50;;;;;;5091908;28;19961;-35
2022/12/18 12:15:01;;;;;;;;;;;1.80;76.60;;;;;;5092062;28;20002;-35
2022/12/18 12:17:35;;;;;;;;;;;1.80;76.70;;;;;;5091765;28;19913;-36
2022/12/18 12:20:03;;;;;;;;;;;1.80;76.50;;;;;;5093082;28;19938;-35
2022/12/18 12:22:47;;;;;;;;;;;1.90;76.20;;;;;;5095543;28;19952;-35
2022/12/18 12:25:15;;;;;;;;;;;1.90;76.20;;;;;;5094401;28;19912;-35
2022/12/18 12:27:58;;;;;;;;;;;1.80;76.10;;;;;;5095670;28;19912;-36
2022/12/18 12:30:30;;;;;;;;;;;1.90;76.10;;;;;;5095522;28;19916;-36
2022/12/18 12:33:08;;;;;;;;;;;1.90;75.90;;;;;;5095786;28;19912;-37
2022/12/18 12:35:44;;;;;;;;;;;1.90;75.80;;;;;;5095563;28;19913;-35
2022/12/18 12:38:10;;;;;;;;;;;2.00;75.70;;;;;;5095560;28;20375;-35
2022/12/18 12:40:38;;;;;;;;;;;2.00;76.30;;;;;;5095617;28;19999;-36
2022/12/18 12:43:16;;;;;;;;;;;2.00;76.40;;;;;;5095282;28;19965;-36
2022/12/18 12:45:48;;;;;;;;;;;2.00;76.30;;;;;;5095537;28;19913;-35
2022/12/18 12:48:18;;;;;;;;;;;2.00;76.10;;;;;;5094113;28;20237;-35
2022/12/18 12:50:44;;;;;;;;;;;2.00;76.20;;;;;;5095221;28;19961;-37
2022/12/18 12:53:15;;;;;;;;;;;2.00;78.40;;;;;;5094995;28;19962;-34
2022/12/18 12:55:41;;;;;;;;;;;2.10;78.40;;;;;;5095042;28;19919;-35
2022/12/18 12:58:14;;;;;;;;;;;2.00;77.80;;;;;;5094965;28;19912;-34
2022/12/18 13:00:44;;;;;;;;;;;2.00;77.30;;;;;;5094942;28;19919;-36
2022/12/18 13:03:17;;;;;;;;;;;2.00;77.00;;;;;;5094848;28;19919;-35
2022/12/18 13:05:52;;;;;;;;;;;2.00;77.00;;;;;;5094621;28;20049;-36
2022/12/18 13:08:25;;;;;;;;;;;2.00;77.10;;;;;;5094566;28;19968;-38
2022/12/18 13:12:55;;;;;;;;;;;2.00;77.00;;;;;;5094903;28;19912;-34
2022/12/18 13:13:48;;;;;;;;;;;2.10;76.90;;;;;;5094547;28;20384;-36
2022/12/18 13:16:18;;;;;;;;;;;2.10;77.30;;;;;;5094338;28;19912;-38
2022/12/18 13:18:48;;;;;;;;;;;2.10;77.50;;;;;;5094658;28;19916;-37
2022/12/18 13:21:30;;;;;;;;;;;2.10;77.30;;;;;;5094503;28;19912;-37
2022/12/18 13:23:57;;;;;;;;;;;2.10;77.30;;;;;;5094679;28;19920;-35
2022/12/18 13:26:22;;;;;;;;;;;2.10;77.20;;;;;;5094332;28;19908;-36
2022/12/18 13:28:48;;;;;;;;;;;2.00;76.80;;;;;;5094655;28;20011;-36
2022/12/18 13:31:15;;;;;;;;;;;2.10;76.90;;;;;;5093240;28;19912;-37
2022/12/18 13:33:44;;;;;;;;;;;2.00;77.00;;;;;;5094551;28;20417;-37
2022/12/18 13:36:15;;;;;;;;;;;2.10;78.00;;;;;;5094433;28;19908;-36
2022/12/18 13:38:42;;;;;;;;;;;2.10;77.80;;;;;;5094571;28;20308;-41
2022/12/18 13:41:07;;;;;;;;;;;2.10;77.30;;;;;;5092908;28;19908;-35
2022/12/18 13:43:58;;;;;;;;;;;2.10;76.90;;;;;;5094255;28;19961;-37
2022/12/18 13:46:42;;;;;;;;;;;2.10;76.70;;;;;;5089196;28;19923;-37
2022/12/18 13:49:13;;;;;;;;;;;2.10;76.50;;;;;;5094409;28;19919;-37
2022/12/18 13:51:57;;;;;;;;;;;2.10;76.20;;;;;;5094117;28;19955;-35
2022/12/18 13:54:40;;;;;;;;;;;2.20;76.10;;;;;;5094169;28;20374;-36
2022/12/18 13:57:24;;;;;;;;;;;2.20;76.00;;;;;;5093935;28;19951;-36
2022/12/18 13:59:49;;;;;;;;;;;2.20;75.60;;;;;;5094160;28;19973;-36
2022/12/18 14:02:16;;;;;;;;;;;2.20;75.60;;;;;;5093648;28;19912;-37
2022/12/18 14:04:44;;;;;;;;;;;2.20;75.70;;;;;;5092399;28;19908;-36
2022/12/18 14:07:17;;;;;;;;;;;2.20;75.60;;;;;;5093774;28;19908;-35
2022/12/18 14:09:46;;;;;;;;;;;2.10;75.40;;;;;;5093496;28;19969;-36
2022/12/18 14:15:22;;;;;;;;;;;2.20;75.20;;;;;;5093769;28;20004;-36
2022/12/18 14:17:47;;;;;;;;;;;2.20;75.10;;;;;;5093494;28;19912;-38
2022/12/18 14:20:14;;;;;;;;;;;2.20;75.00;;;;;;5092227;28;20283;-35
2022/12/18 14:22:42;;;;;;;;;;;2.20;75.00;;;;;;5093455;28;19918;-36
2022/12/18 14:25:18;;;;;;;;;;;2.20;75.00;;;;;;5093655;28;19916;-39
2022/12/18 14:27:45;;;;;;;;;;;2.20;74.80;;;;;;5093059;28;19955;-36
2022/12/18 14:30:23;;;;;;;;;;;2.20;74.80;;;;;;5093234;28;19919;-36
2022/12/18 14:33:08;;;;;;;;;;;2.30;74.80;;;;;;5093202;28;19912;-33
2022/12/18 14:35:36;;;;;;;;;;;2.20;74.70;;;;;;5093375;28;20352;-37
2022/12/18 14:38:13;;;;;;;;;;;2.20;74.70;;;;;;5091677;28;20387;-37